Time;durP1;ratioP1;P1;durP2;ratioP2;P2;SDS_P1;SDS_P2;PMS_P1;PMS_P2;Temp;Humidity;BMP_temperature;BMP_pressure;BME280_temperature;BME280_humidity;BME280_pressure;Samples;Min_cycle;Max_cycle;Signal;HPM_P1;HPM_P2
2022/02/11 00:06:53;;;;;;;64.70;38.55;;;256.00;1536.00;;;;;;5116200;28;20096;-62
2022/02/11 00:09:04;;;;;;;82.90;40.88;;;231.30;1536.00;;;;;;5115088;28;20055;-61
2022/02/11 00:11:36;;;;;;;71.75;39.67;;;256.10;1536.00;;;;;;5116504;28;20076;-64
2022/02/11 00:14:09;;;;;;;66.38;37.50;;;256.10;1510.40;;;;;;5116062;28;20024;-64
2022/02/11 00:16:40;;;;;;;67.40;36.33;;;256.10;1536.00;;;;;;5116010;28;20435;-64
2022/02/11 00:19:10;;;;;;;70.13;36.63;;;256.20;1536.00;;;;;;5115926;28;20020;-63
2022/02/11 00:21:39;;;;;;;65.68;35.67;;;256.10;1536.00;;;;;;5116033;28;20028;-64
2022/02/11 00:24:13;;;;;;;64.75;35.58;;;256.10;1510.40;;;;;;5115727;28;20020;-64
2022/02/11 00:26:55;;;;;;;63.10;35.53;;;256.00;1536.00;;;;;;5115822;28;20326;-62
2022/02/11 00:35:02;;;;;;;58.40;33.78;;;256.10;1536.00;;;;;;5033358;28;20049;-62
2022/02/11 00:37:37;;;;;;;56.13;32.75;;;256.10;1536.00;;;;;;5032903;28;20029;-63
2022/02/11 00:40:26;;;;;;;57.15;33.38;;;256.10;1536.00;;;;;;5032972;28;20037;-62
2022/02/11 01:02:54;;;;;;;63.75;36.13;;;231.30;1561.60;;;;;;5032573;28;20036;-64
2022/02/11 01:05:25;;;;;;;68.97;38.03;;;231.30;1536.00;;;;;;5032178;28;20587;-63
2022/02/11 01:07:57;;;;;;;65.60;38.00;;;231.20;1536.00;;;;;;5032489;28;20034;-64
2022/02/11 01:10:26;;;;;;;73.35;42.42;;;231.30;1536.00;;;;;;5044919;28;20023;-64
2022/02/11 01:12:56;;;;;;;67.68;42.28;;;231.30;1536.00;;;;;;5114736;28;20080;-64
2022/02/11 01:15:31;;;;;;;69.78;42.53;;;231.10;1536.00;;;;;;5114723;28;20030;-63
2022/02/11 01:18:00;;;;;;;63.65;39.13;;;231.10;1561.60;;;;;;5115187;28;20073;-63
2022/02/11 01:26:20;;;;;;;67.15;39.88;;;231.00;1536.00;;;;;;5114623;28;20012;-63
2022/02/11 01:31:37;;;;;;;62.47;36.30;;;230.90;1561.60;;;;;;5114487;28;20355;-61
2022/02/11 02:03:22;;;;;;;;;;;230.60;1587.20;;;;;;5114756;28;19910;-64
2022/02/11 02:27:22;;;;;;;;;;;230.40;1587.20;;;;;;5051686;28;19904;-62
2022/02/11 02:57:41;;;;;;;;;;;230.40;1587.20;;;;;;5055815;28;19912;-61
2022/02/11 03:17:32;;;;;;;;;;;205.60;1587.20;;;;;;5117668;28;19911;-61
2022/02/11 04:55:32;;;;;;;;;;;205.10;1612.80;;;;;;5033328;28;19912;-61
2022/02/11 05:00:46;;;;;;;;;;;205.00;1612.80;;;;;;5033015;28;19912;-62
2022/02/11 05:03:14;;;;;;;;;;;205.00;1612.80;;;;;;5033054;28;19929;-64
2022/02/11 05:05:49;;;;;;;;;;;205.00;1612.80;;;;;;5032954;28;19905;-62
2022/02/11 05:08:25;;;;;;;;;;;205.00;1612.80;;;;;;5032871;28;19919;-61
2022/02/11 05:10:54;;;;;;;;;;;205.00;1612.80;;;;;;5032881;28;19905;-62
2022/02/11 05:13:22;;;;;;;;;;;204.90;1612.80;;;;;;5032599;28;19912;-62
2022/02/11 05:15:51;;;;;;;;;;;204.90;1612.80;;;;;;5115234;28;19915;-62
2022/02/11 05:18:19;;;;;;;;;;;204.90;1612.80;;;;;;5115494;28;19904;-62
2022/02/11 05:20:47;;;;;;;;;;;204.90;1638.40;;;;;;5115342;28;19903;-62
2022/02/11 05:23:17;;;;;;;;;;;204.90;1638.40;;;;;;5115079;28;20349;-62
2022/02/11 05:25:45;;;;;;;;;;;204.90;1638.40;;;;;;5115270;28;19912;-62
2022/02/11 05:28:14;;;;;;;;;;;204.90;1664.00;;;;;;5115079;28;19980;-62
2022/02/11 05:30:43;;;;;;;;;;;204.90;1638.40;;;;;;5114925;28;19915;-62
2022/02/11 05:33:13;;;;;;;;;;;205.00;1638.40;;;;;;5114823;28;20327;-61
2022/02/11 05:35:42;;;;;;;;;;;205.10;1638.40;;;;;;5096106;28;19986;-61
2022/02/11 05:38:11;;;;;;;;;;;205.10;1664.00;;;;;;5114527;28;19982;-61
2022/02/11 05:40:37;;;;;;;;;;;205.10;1664.00;;;;;;5115039;28;19910;-62
2022/02/11 05:43:06;;;;;;;;;;;205.10;1638.40;;;;;;5114963;28;19903;-62
2022/02/11 05:45:35;;;;;;;;;;;205.30;1971.20;;;;;;5114691;28;20003;-62
2022/02/11 05:48:01;;;;;;;;;;;205.30;1740.80;;;;;;5114883;28;19912;-62
2022/02/11 05:50:29;;;;;;;;;;;205.30;1689.60;;;;;;5114536;28;20372;-62
2022/02/11 05:52:58;;;;;;;;;;;205.30;1689.60;;;;;;5114708;28;19943;-62
2022/02/11 05:55:24;;;;;;;;;;;205.40;1664.00;;;;;;5114698;28;19904;-62
2022/02/11 05:57:52;;;;;;;;;;;205.30;1664.00;;;;;;5114823;28;20258;-61
2022/02/11 06:00:21;;;;;;;;;;;205.40;1638.40;;;;;;5114393;28;19904;-61
2022/02/11 06:02:46;;;;;;;;;;;205.40;1638.40;;;;;;5114669;28;19904;-61
2022/02/11 06:05:16;;;;;;;;;;;205.50;1638.40;;;;;;5114790;28;19904;-61
2022/02/11 06:07:45;;;;;;;;;;;205.60;1612.80;;;;;;5114086;28;19914;-61
2022/02/11 06:10:14;;;;;;;;;;;205.60;1638.40;;;;;;5114525;28;20265;-61
2022/02/11 06:12:42;;;;;;;;;;;205.60;1638.40;;;;;;5114526;28;19903;-61
2022/02/11 06:15:11;;;;;;;;;;;205.60;1612.80;;;;;;5114219;28;19908;-61
2022/02/11 06:17:40;;;;;;;;;;;205.60;1638.40;;;;;;5114529;28;19904;-61
2022/02/11 06:20:08;;;;;;;;;;;205.70;1638.40;;;;;;5114531;28;19911;-61
2022/02/11 06:22:37;;;;;;;;;;;205.70;1612.80;;;;;;5114501;28;19904;-61
2022/02/11 06:25:03;;;;;;;;;;;205.70;1638.40;;;;;;5114239;28;19904;-61
2022/02/11 06:27:32;;;;;;;;;;;205.70;1638.40;;;;;;5113713;28;19957;-61
2022/02/11 06:30:00;;;;;;;;;;;230.40;1638.40;;;;;;5114237;28;19912;-61
2022/02/11 06:32:29;;;;;;;;;;;230.40;1664.00;;;;;;5114197;28;20009;-61
2022/02/11 06:34:58;;;;;;;;;;;230.50;1664.00;;;;;;5115056;28;20300;-61
2022/02/11 06:37:26;;;;;;;;;;;230.50;1664.00;;;;;;5114371;28;19911;-61
2022/02/11 06:39:55;;;;;;;;;;;230.60;1664.00;;;;;;5114235;28;19931;-61
2022/02/11 06:42:23;;;;;;;;;;;230.60;1664.00;;;;;;5114149;28;19908;-60
2022/02/11 06:44:52;;;;;;;;;;;230.50;1664.00;;;;;;5114088;28;19910;-61
2022/02/11 06:47:21;;;;;;;;;;;230.60;1638.40;;;;;;5114034;28;19932;-61
2022/02/11 06:49:47;;;;;;;;;;;230.70;1638.40;;;;;;5114131;28;20350;-61
2022/02/11 06:52:15;;;;;;;;;;;230.60;1638.40;;;;;;5114204;28;19903;-61
2022/02/11 06:54:44;;;;;;;;;;;230.70;1664.00;;;;;;5114202;28;19927;-61
2022/02/11 06:57:12;;;;;;;;;;;230.60;1638.40;;;;;;5114531;28;20338;-61
2022/02/11 06:59:41;;;;;;;;;;;230.60;1638.40;;;;;;5113972;28;20365;-62
2022/02/11 07:02:10;;;;;;;;;;;230.70;1638.40;;;;;;5114070;28;19910;-61
2022/02/11 07:04:36;;;;;;;;;;;230.70;1638.40;;;;;;5098861;28;19908;-61
2022/02/11 07:07:01;;;;;;;;;;;230.70;1638.40;;;;;;5101840;28;19912;-63
2022/02/11 07:09:27;;;;;;;;;;;230.70;1638.40;;;;;;5103320;28;19915;-63
2022/02/11 07:11:52;;;;;;;;;;;230.70;1638.40;;;;;;5103635;28;19952;-62
2022/02/11 07:14:18;;;;;;;;;;;230.70;1664.00;;;;;;5101894;28;20303;-61
2022/02/11 07:16:44;;;;;;;;;;;230.70;1638.40;;;;;;5103781;28;19914;-61
2022/02/11 07:19:10;;;;;;;;;;;230.70;1664.00;;;;;;5104506;28;20447;-63
2022/02/11 07:21:36;;;;;;;;;;;230.70;1638.40;;;;;;5114087;28;20014;-63
2022/02/11 07:24:01;;;;;;;;;;;230.70;1638.40;;;;;;5105581;28;19908;-61
2022/02/11 07:26:27;;;;;;;;;;;230.80;1638.40;;;;;;5102949;28;19908;-63
2022/02/11 07:28:52;;;;;;;;;;;230.70;1638.40;;;;;;5106842;28;19912;-62
2022/02/11 07:31:21;;;;;;;;;;;230.70;1664.00;;;;;;5106986;28;21119;-61
2022/02/11 07:33:47;;;;;;;;;;;230.80;1664.00;;;;;;5104921;28;19908;-61
2022/02/11 07:36:14;;;;;;;;;;;230.70;1689.60;;;;;;5108764;28;19974;-62
2022/02/11 07:38:43;;;;;;;;;;;230.80;1664.00;;;;;;5117212;28;19952;-61
2022/02/11 07:41:12;;;;;;;;;;;230.80;1664.00;;;;;;5117210;28;19904;-63
2022/02/11 07:43:41;;;;;;;;;;;230.80;1689.60;;;;;;5117246;28;19907;-62
2022/02/11 07:46:09;;;;;;;;;;;230.90;1689.60;;;;;;5117034;28;19904;-59
2022/02/11 07:48:38;;;;;;;;;;;230.90;1689.60;;;;;;5117117;28;19912;-60
2022/02/11 07:51:07;;;;;;;;;;;230.90;1715.20;;;;;;5117047;28;19911;-60
2022/02/11 07:53:35;;;;;;;;;;;231.00;1715.20;;;;;;5117153;28;19986;-59
2022/02/11 07:56:04;;;;;;;;;;;231.00;1715.20;;;;;;5116665;28;19911;-58
2022/02/11 07:58:31;;;;;;;;;;;231.10;1715.20;;;;;;5116929;28;19903;-60
2022/02/11 08:01:00;;;;;;;;;;;231.20;1715.20;;;;;;5116680;28;19903;-60
2022/02/11 08:03:29;;;;;;;;;;;231.20;1715.20;;;;;;5116590;28;19910;-59
2022/02/11 08:05:55;;;;;;;;;;;231.30;1740.80;;;;;;5116740;28;20334;-60
2022/02/11 08:08:27;;;;;;;;;;;256.00;1740.80;;;;;;5117216;28;19962;-58
2022/02/11 08:10:55;;;;;;;;;;;231.30;1715.20;;;;;;5116425;28;20014;-58
2022/02/11 08:13:24;;;;;;;;;;;256.00;1740.80;;;;;;5116707;28;19939;-58
2022/02/11 08:15:54;;;;;;;;;;;256.20;1740.80;;;;;;5116538;28;19926;-58
2022/02/11 08:18:22;;;;;;;;;;;256.20;1715.20;;;;;;5116529;28;19907;-60
2022/02/11 08:20:51;;;;;;;;;;;256.30;1740.80;;;;;;5116481;28;20311;-60
2022/02/11 08:23:17;;;;;;;;;;;256.50;1740.80;;;;;;5116301;28;19935;-58
2022/02/11 08:25:45;;;;;;;;;;;256.60;1715.20;;;;;;5116051;28;19935;-58
2022/02/11 08:28:15;;;;;;;;;;;256.60;1715.20;;;;;;5116231;28;19911;-59
2022/02/11 08:30:42;;;;;;;;;;;256.80;1740.80;;;;;;5115829;28;20357;-60
2022/02/11 08:33:10;;;;;;;;;;;256.90;1715.20;;;;;;5116068;28;19919;-58
2022/02/11 08:35:39;;;;;;;;;;;256.90;1715.20;;;;;;5116283;28;19939;-60
2022/02/11 08:38:05;;;;;;;;;;;281.80;1740.80;;;;;;5116372;28;20007;-60
2022/02/11 08:40:35;;;;;;;;;;;281.90;1766.40;;;;;;5116126;28;19903;-60
2022/02/11 08:43:04;;;;;;;;;;;282.10;1740.80;;;;;;5116068;28;19908;-60
2022/02/11 08:45:36;;;;;;;;;;;282.30;1740.80;;;;;;5116010;28;20322;-60
2022/02/11 08:48:05;;;;;;;;;;;282.40;1715.20;;;;;;5115903;28;20276;-58
2022/02/11 08:50:35;;;;;;;;;;;307.20;1740.80;;;;;;5115730;28;19904;-58
2022/02/11 08:53:04;;;;;;;;;;;307.40;1740.80;;;;;;5116008;28;19910;-59
2022/02/11 08:55:33;;;;;;;;;;;307.50;1715.20;;;;;;5115730;28;19904;-60
2022/02/11 08:58:08;;;;;;;;;;;307.70;1715.20;;;;;;5115871;28;19904;-59
2022/02/11 09:00:37;;;;;;;;;;;307.80;1689.60;;;;;;5115561;28;20426;-60
2022/02/11 09:03:05;;;;;;;;;;;307.90;1689.60;;;;;;5115487;28;19956;-61
2022/02/11 09:05:34;;;;;;;;;;;308.10;1689.60;;;;;;5115647;28;19972;-60
2022/02/11 09:08:02;;;;;;;;;;;332.80;1689.60;;;;;;5115700;28;19912;-60
2022/02/11 09:10:31;;;;;;;;;;;332.90;1689.60;;;;;;5115674;28;20037;-58
2022/02/11 09:13:00;;;;;;;;;;;333.00;1664.00;;;;;;5115501;28;19911;-60
2022/02/11 09:15:29;;;;;;;;;;;333.00;1689.60;;;;;;5115299;28;19996;-59
2022/02/11 09:17:57;;;;;;;;;;;333.10;1689.60;;;;;;5115333;28;19903;-58
2022/02/11 09:20:26;;;;;;;;;;;333.20;1664.00;;;;;;5115605;28;19903;-58
2022/02/11 09:22:55;;;;;;;;;;;333.30;1664.00;;;;;;5115393;28;19982;-60
2022/02/11 09:25:23;;;;;;;;;;;333.40;1664.00;;;;;;5115329;28;19907;-58
2022/02/11 09:27:54;;;;;;;;;;;333.50;1664.00;;;;;;5114782;28;20259;-59
2022/02/11 09:30:21;;;;;;;;;;;333.60;1638.40;;;;;;5114949;28;20348;-58
2022/02/11 09:32:52;;;;;;;;;;;333.60;1638.40;;;;;;5115184;28;19947;-58
2022/02/11 09:35:21;;;;;;;;;;;358.40;1612.80;;;;;;5115410;28;19907;-58
2022/02/11 09:37:51;;;;;;;;;;;358.50;1638.40;;;;;;5115116;28;19903;-58
2022/02/11 09:40:20;;;;;;;;;;;358.50;1587.20;;;;;;5115154;28;19911;-60
2022/02/11 09:42:51;;;;;;;;;;;358.60;1587.20;;;;;;5114340;28;19949;-59
2022/02/11 09:45:21;;;;;;;;;;;358.70;1561.60;;;;;;5115006;28;19903;-60
2022/02/11 09:47:50;;;;;;;;;;;358.70;1561.60;;;;;;5115062;28;20003;-58
2022/02/11 09:50:22;;;;;;;;;;;358.70;1561.60;;;;;;5115022;28;19927;-58
2022/02/11 09:52:51;;;;;;;;;;;358.80;1536.00;;;;;;5114870;28;20400;-60
2022/02/11 09:55:35;;;;;;;;;;;358.80;1536.00;;;;;;5114967;28;19915;-61
2022/02/11 09:58:11;;;;;;;;;;;358.90;1536.00;;;;;;5114890;28;19904;-60
2022/02/11 10:00:41;;;;;;;;;;;358.90;1536.00;;;;;;5114768;28;19956;-59
2022/02/11 10:03:25;;;;;;;;;;;359.10;1510.40;;;;;;5096084;28;20242;-58
2022/02/11 10:06:00;;;;;;;;;;;359.10;1510.40;;;;;;5114500;28;19956;-60
2022/02/11 10:08:29;;;;;;;;;;;359.20;1510.40;;;;;;5114479;28;19915;-60
2022/02/11 10:10:58;;;;;;;;;;;359.30;1484.80;;;;;;5114784;28;19935;-59
2022/02/11 10:13:30;;;;;;;;;;;384.00;1484.80;;;;;;5114708;28;19904;-60
2022/02/11 10:16:09;;;;;;;;;;;384.10;1484.80;;;;;;5114673;28;20002;-58
2022/02/11 10:18:53;;;;;;;;;;;384.20;1459.20;;;;;;5114394;28;20361;-61
2022/02/11 10:21:23;;;;;;;;;;;384.30;1459.20;;;;;;5114342;28;19904;-61
2022/02/11 10:23:52;;;;;;;;;;;384.30;1433.60;;;;;;5108453;28;19943;-58
2022/02/11 10:26:27;;;;;;;;;;;384.40;1433.60;;;;;;5103907;28;19911;-58
2022/02/11 10:28:56;;;;;;;;;;;384.50;1433.60;;;;;;5103599;28;20320;-61
2022/02/11 10:31:27;;;;;;;;;;;384.50;1408.00;;;;;;5108232;28;19907;-65
2022/02/11 10:34:09;;;;;;;;;;;384.60;1408.00;;;;;;5099776;28;19918;-62
2022/02/11 10:36:45;;;;;;;;;;;384.70;1382.40;;;;;;5101793;28;20342;-63
2022/02/11 10:39:20;;;;;;;;;;;384.70;1382.40;;;;;;5100247;28;19910;-64
2022/02/11 10:41:52;;;;;;;;;;;384.70;1382.40;;;;;;5099216;28;20334;-67
2022/02/11 10:44:22;;;;;;;;;;;384.80;1382.40;;;;;;5107593;28;19907;-66
2022/02/11 10:46:55;;;;;;;;;;;384.80;1382.40;;;;;;5114292;28;19907;-65
2022/02/11 10:49:33;;;;;;;;;;;384.80;1382.40;;;;;;5114252;28;19918;-61
2022/02/11 10:52:20;;;;;;;;;;;384.80;1356.80;;;;;;5114338;28;20331;-67
2022/02/11 10:54:49;;;;;;;;;;;384.80;1382.40;;;;;;5118270;28;19904;-62
2022/02/11 10:57:16;;;;;;;;;;;409.60;1382.40;;;;;;5118298;28;19911;-67
2022/02/11 10:59:45;;;;;;;;;;;409.70;1382.40;;;;;;5118011;28;19911;-65
2022/02/11 11:02:16;;;;;;;;;;;409.70;1356.80;;;;;;5118014;28;19904;-62
2022/02/11 11:04:51;;;;;;;;;;;409.80;1356.80;;;;;;5118385;28;19904;-66
2022/02/11 11:07:24;;;;;;;;;;;409.80;1356.80;;;;;;5118061;28;19911;-67
2022/02/11 11:09:52;;;;;;;;;;;409.90;1356.80;;;;;;5117858;28;20353;-63
2022/02/11 11:12:26;;;;;;;;;;;409.90;1331.20;;;;;;5117868;28;19935;-62
2022/02/11 11:14:56;;;;;;;;;;;410.00;1356.80;;;;;;5117630;28;20308;-62
2022/02/11 11:17:23;;;;;;;;;;;410.00;1356.80;;;;;;5117608;28;19911;-66
2022/02/11 11:19:54;;;;;;;;;;;410.10;1356.80;;;;;;5117713;28;19942;-66
2022/02/11 11:22:24;;;;;;;;;;;410.20;1331.20;;;;;;5117756;28;19995;-60
2022/02/11 11:24:54;;;;;;;;;;;410.20;1331.20;;;;;;5117804;28;19904;-60
2022/02/11 11:27:38;;;;;;;;;;;410.20;1331.20;;;;;;5117681;28;19954;-60
2022/02/11 11:30:26;;;;;;;;;;;410.30;1305.60;;;;;;5117642;28;20268;-59
2022/02/11 11:33:07;;;;;;;;;;;410.30;1305.60;;;;;;5117290;28;19916;-59
2022/02/11 11:35:34;;;;;;;;;;;410.40;1280.00;;;;;;5117478;28;19908;-60
2022/02/11 11:38:10;;;;;;;;;;;410.50;1280.00;;;;;;5117396;28;20318;-58
2022/02/11 11:40:37;;;;;;;;;;;435.20;1280.00;;;;;;5117288;28;19910;-57
2022/02/11 11:43:17;;;;;;;;;;;435.20;1280.00;;;;;;5109157;28;19915;-57
2022/02/11 11:45:43;;;;;;;;;;;435.30;1254.40;;;;;;5103676;28;19911;-58
2022/02/11 11:48:12;;;;;;;;;;;435.40;1254.40;;;;;;5106004;28;19912;-58
2022/02/11 11:50:39;;;;;;;;;;;435.40;1254.40;;;;;;5107263;28;20413;-58
2022/02/11 11:53:22;;;;;;;;;;;435.50;1254.40;;;;;;5106153;28;19904;-58
2022/02/11 11:55:48;;;;;;;;;;;435.50;1254.40;;;;;;5105003;28;19912;-58
2022/02/11 11:58:33;;;;;;;;;;;435.50;1228.80;;;;;;5105632;28;19955;-59
2022/02/11 12:01:03;;;;;;;;;;;435.50;1228.80;;;;;;5102365;28;19904;-60
2022/02/11 12:03:33;;;;;;;;;;;435.50;1228.80;;;;;;5105876;28;19904;-59
2022/02/11 12:06:15;;;;;;;;;;;435.50;1228.80;;;;;;5098315;28;19904;-61
2022/02/11 12:08:45;;;;;;;;;;;435.50;1203.20;;;;;;5107503;28;19916;-60
2022/02/11 12:11:11;;;;;;;;;;;435.50;1203.20;;;;;;5105645;28;19910;-59
2022/02/11 12:13:38;;;;;;;;;;;435.60;1203.20;;;;;;5096099;28;19904;-61
2022/02/11 12:16:05;;;;;;;;;;;435.60;1203.20;;;;;;5095921;28;20306;-59
2022/02/11 12:18:30;;;;;;;;;;;435.60;1203.20;;;;;;5115763;28;20365;-60
2022/02/11 12:20:59;;;;;;;;;;;435.60;1203.20;;;;;;5110754;28;19907;-62
2022/02/11 12:28:56;;;;;;;;;;;435.50;1203.20;;;;;;5113154;28;20282;-59
2022/02/11 12:31:24;;;;;;;;;;;435.50;1203.20;;;;;;5112687;28;19907;-60
2022/02/11 12:33:50;;;;;;;;;;;435.40;1203.20;;;;;;5116287;28;19904;-60
2022/02/11 12:36:15;;;;;;;;;;;435.40;1203.20;;;;;;5116107;28;19911;-60
2022/02/11 12:38:42;;;;;;;;;;;435.40;1177.60;;;;;;5107808;28;19911;-60
2022/02/11 12:41:07;;;;;;;;;;;435.40;1203.20;;;;;;5095494;28;20281;-60
2022/02/11 12:43:33;;;;;;;;;;;435.40;1203.20;;;;;;5095491;28;19908;-59
2022/02/11 12:46:01;;;;;;;;;;;435.50;1203.20;;;;;;5098422;28;19908;-61
2022/02/11 12:48:30;;;;;;;;;;;435.50;1203.20;;;;;;5111145;28;19923;-61
2022/02/11 12:50:59;;;;;;;;;;;435.50;1177.60;;;;;;5103150;28;19981;-59
2022/02/11 12:53:25;;;;;;;;;;;435.60;1177.60;;;;;;5103274;28;19908;-59
2022/02/11 12:55:51;;;;;;;;;;;435.60;1177.60;;;;;;5106089;28;19908;-59
2022/02/11 12:58:21;;;;;;;;;;;435.70;1177.60;;;;;;5115930;28;20329;-60
2022/02/11 13:00:50;;;;;;;;;;;435.60;1152.00;;;;;;5115758;28;19904;-59
2022/02/11 13:03:19;;;;;;;;;;;435.60;1152.00;;;;;;5115600;28;19903;-59
2022/02/11 13:05:48;;;;;;;;;;;435.60;1152.00;;;;;;5115704;28;19903;-63
2022/02/11 13:08:26;;;;;;;;;;;435.60;1152.00;;;;;;5115573;28;20273;-62
2022/02/11 13:11:02;;;;;;;;;;;435.60;1152.00;;;;;;5115601;28;19907;-63
2022/02/11 13:13:31;;;;;;;;;;;435.70;1126.40;;;;;;5115585;28;19960;-60
2022/02/11 13:16:03;;;;;;;;;;;435.60;1152.00;;;;;;5115099;28;19903;-62
2022/02/11 13:18:40;;;;;;;;;;;435.60;1126.40;;;;;;5114772;28;19904;-58
2022/02/11 13:21:09;;;;;;;;;;;435.60;1126.40;;;;;;5115382;28;19910;-60
2022/02/11 13:23:39;;;;;;;;;;;435.60;1126.40;;;;;;5115175;28;19904;-58
2022/02/11 13:26:12;;;;;;;;;;;435.60;1126.40;;;;;;5115181;28;19904;-61
2022/02/11 13:28:49;;;;;;;;;;;435.50;1126.40;;;;;;5115036;28;20073;-58
2022/02/11 13:31:18;;;;;;;;;;;435.40;1126.40;;;;;;5096419;28;20309;-59
2022/02/11 13:34:00;;;;;;;;;;;435.40;1126.40;;;;;;5115126;28;19915;-58
2022/02/11 13:36:28;;;;;;;;;;;435.40;1126.40;;;;;;5114937;28;19999;-61
2022/02/11 13:38:59;;;;;;;;;;;435.50;1126.40;;;;;;5096545;28;20251;-62
2022/02/11 13:41:29;;;;;;;;;;;435.50;1126.40;;;;;;5115019;28;19904;-63
2022/02/11 13:44:07;;;;;;;;;;;435.50;1126.40;;;;;;5114771;28;20276;-62
2022/02/11 13:46:37;;;;;;;;;;;435.50;1126.40;;;;;;5114632;28;19998;-62
2022/02/11 13:49:12;;;;;;;;;;;435.50;1126.40;;;;;;5115127;28;20269;-60
2022/02/11 13:51:41;;;;;;;;;;;435.40;1126.40;;;;;;5115026;28;19915;-61
2022/02/11 13:54:12;;;;;;;;;;;435.40;1126.40;;;;;;5114735;28;20414;-58
2022/02/11 13:56:41;;;;;;;;;;;435.40;1126.40;;;;;;5114515;28;20024;-64
2022/02/11 13:59:11;;;;;;;;;;;435.40;1100.80;;;;;;5114362;28;19992;-62
2022/02/11 14:01:47;;;;;;;;;;;435.40;1126.40;;;;;;5114642;28;19911;-59
2022/02/11 14:04:22;;;;;;;;;;;435.40;1126.40;;;;;;5114641;28;19908;-63
2022/02/11 14:06:57;;;;;;;;;;;435.40;1126.40;;;;;;5114737;28;19930;-58
2022/02/11 14:09:35;;;;;;;;;;;435.40;1126.40;;;;;;5114345;28;19926;-61
2022/02/11 14:12:18;;;;;;;;;;;435.30;1126.40;;;;;;5114030;28;19904;-59
2022/02/11 14:14:53;;;;;;;;;;;435.30;1126.40;;;;;;5114321;28;19910;-58
2022/02/11 14:17:22;;;;;;;;;;;435.20;1126.40;;;;;;5114584;28;20333;-61
2022/02/11 14:19:51;;;;;;;;;;;435.20;1126.40;;;;;;5114215;28;19908;-58
2022/02/11 14:22:19;;;;;;;;;;;435.20;1152.00;;;;;;5114800;28;19904;-58
2022/02/11 14:24:50;;;;;;;;;;;410.50;1152.00;;;;;;5114416;28;19911;-58
2022/02/11 14:27:16;;;;;;;;;;;410.50;1152.00;;;;;;5114592;28;20357;-58
2022/02/11 14:29:45;;;;;;;;;;;410.40;1177.60;;;;;;5117413;28;19915;-58
2022/02/11 14:32:13;;;;;;;;;;;410.30;1203.20;;;;;;5118428;28;20361;-60
2022/02/11 14:34:41;;;;;;;;;;;410.30;1203.20;;;;;;5118512;28;19991;-61
2022/02/11 14:37:10;;;;;;;;;;;410.30;1203.20;;;;;;5118667;28;19962;-58
2022/02/11 14:39:39;;;;;;;;;;;410.20;1228.80;;;;;;5118854;28;19956;-60
2022/02/11 14:42:05;;;;;;;;;;;410.20;1228.80;;;;;;5118635;28;19910;-59
2022/02/11 14:44:36;;;;;;;;;;;410.20;1228.80;;;;;;5117993;28;19956;-57
2022/02/11 14:47:07;;;;;;;;;;;410.10;1228.80;;;;;;5118445;28;19946;-59
2022/02/11 14:49:36;;;;;;;;;;;410.10;1228.80;;;;;;5118351;28;19911;-62
2022/02/11 14:52:07;;;;;;;;;;;410.10;1254.40;;;;;;5118270;28;19908;-63
2022/02/11 14:54:35;;;;;;;;;;;410.00;1228.80;;;;;;5118555;28;19903;-59
2022/02/11 14:57:04;;;;;;;;;;;410.00;1228.80;;;;;;5117909;28;19911;-58
2022/02/11 14:59:33;;;;;;;;;;;410.00;1228.80;;;;;;5118074;28;19939;-58
2022/02/11 15:02:02;;;;;;;;;;;409.90;1228.80;;;;;;5118067;28;19911;-62
2022/02/11 15:04:30;;;;;;;;;;;409.70;1228.80;;;;;;5117821;28;20346;-63
2022/02/11 15:07:01;;;;;;;;;;;409.70;1254.40;;;;;;5118259;28;19910;-65
2022/02/11 15:09:30;;;;;;;;;;;409.70;1254.40;;;;;;5118049;28;20329;-63
2022/02/11 15:11:59;;;;;;;;;;;409.60;1280.00;;;;;;5108700;28;20330;-62
2022/02/11 15:14:26;;;;;;;;;;;384.80;1305.60;;;;;;5117426;28;19998;-61
2022/02/11 15:16:52;;;;;;;;;;;384.70;1305.60;;;;;;5117590;28;20368;-63
2022/02/11 15:19:18;;;;;;;;;;;384.70;1331.20;;;;;;5116725;28;19907;-62
2022/02/11 15:21:46;;;;;;;;;;;384.60;1331.20;;;;;;5117400;28;19910;-62
2022/02/11 15:24:12;;;;;;;;;;;384.50;1331.20;;;;;;5117425;28;19943;-61
2022/02/11 15:26:40;;;;;;;;;;;384.50;1331.20;;;;;;5117003;28;19903;-62
2022/02/11 15:29:09;;;;;;;;;;;384.50;1356.80;;;;;;5117127;28;20384;-63
2022/02/11 15:31:39;;;;;;;;;;;384.40;1356.80;;;;;;5117208;28;19916;-63
2022/02/11 15:34:07;;;;;;;;;;;384.40;1331.20;;;;;;5117219;28;20268;-63
2022/02/11 15:36:39;;;;;;;;;;;384.20;1382.40;;;;;;5117125;28;19949;-62
2022/02/11 15:39:08;;;;;;;;;;;384.20;1356.80;;;;;;5116689;28;19911;-61
2022/02/11 15:41:35;;;;;;;;;;;384.20;1382.40;;;;;;5115892;28;19904;-66
2022/02/11 15:44:03;;;;;;;;;;;384.10;1382.40;;;;;;5117203;28;19903;-62
2022/02/11 15:46:32;;;;;;;;;;;384.10;1408.00;;;;;;5116973;28;19926;-62
2022/02/11 15:49:00;;;;;;;;;;;384.10;1408.00;;;;;;5116762;28;19912;-62
2022/02/11 15:51:31;;;;;;;;;;;384.10;1382.40;;;;;;5116964;28;20269;-61
2022/02/11 15:53:59;;;;;;;;;;;384.00;1382.40;;;;;;5116899;28;19904;-62
2022/02/11 15:56:25;;;;;;;;;;;384.00;1408.00;;;;;;5116431;28;19942;-61
2022/02/11 15:58:51;;;;;;;;;;;359.30;1408.00;;;;;;5116933;28;19904;-61
2022/02/11 16:01:18;;;;;;;;;;;359.30;1408.00;;;;;;5116560;28;20310;-60
2022/02/11 16:03:45;;;;;;;;;;;359.30;1459.20;;;;;;5116644;28;19904;-61
2022/02/11 16:06:13;;;;;;;;;;;359.20;1433.60;;;;;;5116860;28;19903;-62
2022/02/11 16:08:40;;;;;;;;;;;359.20;1433.60;;;;;;5116911;28;19912;-62
2022/02/11 16:11:06;;;;;;;;;;;359.10;1433.60;;;;;;5116134;28;19911;-59
2022/02/11 16:13:34;;;;;;;;;;;359.00;1459.20;;;;;;5116523;28;19904;-61
2022/02/11 16:16:00;;;;;;;;;;;359.00;1510.40;;;;;;5116339;28;19904;-61
2022/02/11 16:18:26;;;;;;;;;;;359.00;1484.80;;;;;;5116324;28;20272;-61
2022/02/11 16:20:55;;;;;;;;;;;359.00;1484.80;;;;;;5116413;28;19903;-61
2022/02/11 16:23:24;;;;;;;;;;;359.00;1484.80;;;;;;5116895;28;19908;-62
2022/02/11 16:25:53;;;;;;;;;;;358.90;1510.40;;;;;;5115892;28;19904;-61
2022/02/11 16:28:22;;;;;;;;;;;358.90;1484.80;;;;;;5116042;28;19912;-62
2022/02/11 16:30:51;;;;;;;;;;;358.90;1510.40;;;;;;5116211;28;19949;-62
2022/02/11 16:33:22;;;;;;;;;;;358.90;1510.40;;;;;;5115058;28;19916;-66
2022/02/11 16:35:48;;;;;;;;;;;358.80;1510.40;;;;;;5116226;28;20338;-62
2022/02/11 16:38:16;;;;;;;;;;;358.80;1510.40;;;;;;5116177;28;20364;-59
2022/02/11 16:40:45;;;;;;;;;;;358.80;1510.40;;;;;;5115640;28;19910;-60
2022/02/11 16:43:11;;;;;;;;;;;358.80;1536.00;;;;;;5116235;28;19904;-62
2022/02/11 16:45:39;;;;;;;;;;;358.70;1536.00;;;;;;5115901;28;19957;-62
2022/02/11 16:48:06;;;;;;;;;;;358.70;1561.60;;;;;;5115832;28;20394;-59
2022/02/11 16:50:35;;;;;;;;;;;358.60;1561.60;;;;;;5115597;28;19995;-58
2022/02/11 16:53:04;;;;;;;;;;;358.60;1536.00;;;;;;5115270;28;19903;-62
2022/02/11 16:55:31;;;;;;;;;;;358.60;1536.00;;;;;;5115419;28;20002;-62
2022/02/11 16:58:00;;;;;;;;;;;358.60;1510.40;;;;;;5115618;28;19911;-62
2022/02/11 17:00:26;;;;;;;;;;;358.60;1510.40;;;;;;5115617;28;19986;-63
2022/02/11 17:02:55;;;;;;;;;;;358.50;1510.40;;;;;;5115363;28;20317;-59
2022/02/11 17:05:22;;;;;;;;;;;358.60;1510.40;;;;;;5115376;28;19904;-60
2022/02/11 17:07:50;;;;;;;;;;;358.50;1484.80;;;;;;5115175;28;20443;-62
2022/02/11 17:10:17;;;;;;;;;;;358.90;1664.00;;;;;;5115304;28;19904;-63
2022/02/11 17:12:46;;;;;;;;;;;358.90;1459.20;;;;;;5115036;28;19957;-63
2022/02/11 17:15:12;;;;;;;;;;;358.90;1459.20;;;;;;5115102;28;19907;-63
2022/02/11 17:17:41;;;;;;;;;;;358.90;1433.60;;;;;;5115198;28;19903;-66
2022/02/11 17:20:09;;;;;;;;;;;358.80;1433.60;;;;;;5115149;28;19904;-59
2022/02/11 17:22:35;;;;;;;;;;;358.80;1433.60;;;;;;5115317;28;19918;-66
2022/02/11 17:25:03;;;;;;;;;;;358.80;1433.60;;;;;;5114821;28;19911;-60
2022/02/11 17:27:33;;;;;;;;;;;358.80;1433.60;;;;;;5115251;28;19914;-63
2022/02/11 17:30:02;;;;;;;;;;;358.70;1433.60;;;;;;5115031;28;20010;-60
2022/02/11 17:32:31;;;;;;;;;;;358.60;1433.60;;;;;;5114491;28;19920;-60
2022/02/11 17:34:57;;;;;;;;;;;358.60;1433.60;;;;;;5114785;28;19949;-59
2022/02/11 17:37:26;;;;;;;;;;;358.50;1433.60;;;;;;5115469;28;19957;-66
2022/02/11 17:39:53;;;;;;;;;;;358.40;1459.20;;;;;;5114546;28;20375;-61
2022/02/11 17:42:21;;;;;;;;;;;358.40;1459.20;;;;;;5114798;28;19908;-65
2022/02/11 17:44:48;;;;;;;;;;;358.40;1459.20;;;;;;5114716;28;20444;-59
2022/02/11 17:47:16;;;;;;;;;;;358.40;1459.20;;;;;;5114452;28;19908;-67